sensor_id;sensor_type;location;lat;lon;timestamp;pressure;altitude;pressure_sealevel;temperature;humidity
75317;BME280;63913;51.492;10.368;2024-02-23T00:00:10;95555.66;;;7.83;71.16
75317;BME280;63913;51.492;10.368;2024-02-23T00:02:37;95565.03;;;7.84;70.41
75317;BME280;63913;51.492;10.368;2024-02-23T00:05:02;95567.59;;;7.82;71.05
75317;BME280;63913;51.492;10.368;2024-02-23T00:07:28;95561.72;;;7.76;69.71
75317;BME280;63913;51.492;10.368;2024-02-23T00:09:53;95567.63;;;7.79;68.51
75317;BME280;63913;51.492;10.368;2024-02-23T00:12:18;95579.56;;;7.79;69.30
75317;BME280;63913;51.492;10.368;2024-02-23T00:14:44;95572.84;;;7.72;69.60
75317;BME280;63913;51.492;10.368;2024-02-23T00:17:09;95566.88;;;7.73;69.13
75317;BME280;63913;51.492;10.368;2024-02-23T00:19:35;95594.25;;;7.64;69.68
75317;BME280;63913;51.492;10.368;2024-02-23T00:22:00;95601.09;;;7.62;69.66
75317;BME280;63913;51.492;10.368;2024-02-23T00:24:26;95602.00;;;7.61;69.43
75317;BME280;63913;51.492;10.368;2024-02-23T00:26:51;95561.94;;;7.60;69.54
75317;BME280;63913;51.492;10.368;2024-02-23T00:29:17;95581.53;;;7.61;69.76
75317;BME280;63913;51.492;10.368;2024-02-23T00:31:43;95593.50;;;7.58;70.88
75317;BME280;63913;51.492;10.368;2024-02-23T00:34:10;95590.97;;;7.56;70.78
75317;BME280;63913;51.492;10.368;2024-02-23T00:36:42;95604.59;;;7.55;69.88
75317;BME280;63913;51.492;10.368;2024-02-23T00:39:08;95622.56;;;7.52;68.64
75317;BME280;63913;51.492;10.368;2024-02-23T00:41:36;95633.59;;;7.54;67.66
75317;BME280;63913;51.492;10.368;2024-02-23T00:44:02;95624.25;;;7.53;68.25
75317;BME280;63913;51.492;10.368;2024-02-23T00:46:28;95645.56;;;7.52;67.62
75317;BME280;63913;51.492;10.368;2024-02-23T00:48:53;95640.47;;;7.51;67.28
75317;BME280;63913;51.492;10.368;2024-02-23T00:51:19;95645.59;;;7.48;67.24
75317;BME280;63913;51.492;10.368;2024-02-23T00:53:45;95677.97;;;7.50;66.92
75317;BME280;63913;51.492;10.368;2024-02-23T00:56:10;95668.59;;;7.49;66.84
75317;BME280;63913;51.492;10.368;2024-02-23T00:58:35;95670.31;;;7.47;67.07
75317;BME280;63913;51.492;10.368;2024-02-23T01:01:01;95678.88;;;7.45;67.43
75317;BME280;63913;51.492;10.368;2024-02-23T01:03:26;95676.25;;;7.51;67.40
75317;BME280;63913;51.492;10.368;2024-02-23T01:05:51;95672.84;;;7.50;67.71
75317;BME280;63913;51.492;10.368;2024-02-23T01:08:17;95688.19;;;7.52;68.54
75317;BME280;63913;51.492;10.368;2024-02-23T01:10:42;95684.78;;;7.51;69.27
75317;BME280;63913;51.492;10.368;2024-02-23T01:13:08;95681.31;;;7.55;69.19
75317;BME280;63913;51.492;10.368;2024-02-23T01:15:33;95698.41;;;7.53;70.29
75317;BME280;63913;51.492;10.368;2024-02-23T01:17:59;95714.59;;;7.54;69.67
75317;BME280;63913;51.492;10.368;2024-02-23T01:20:24;95744.44;;;7.49;68.55
75317;BME280;63913;51.492;10.368;2024-02-23T01:22:50;95753.88;;;7.45;67.77
75317;BME280;63913;51.492;10.368;2024-02-23T01:25:15;95757.28;;;7.46;66.73
75317;BME280;63913;51.492;10.368;2024-02-23T01:27:41;95736.00;;;7.42;64.96
75317;BME280;63913;51.492;10.368;2024-02-23T01:30:07;95755.66;;;7.36;65.98
75317;BME280;63913;51.492;10.368;2024-02-23T01:32:33;95771.06;;;7.28;65.22
75317;BME280;63913;51.492;10.368;2024-02-23T01:34:58;95798.34;;;7.26;66.47
75317;BME280;63913;51.492;10.368;2024-02-23T01:37:24;95813.72;;;7.21;65.75
75317;BME280;63913;51.492;10.368;2024-02-23T01:39:49;95799.31;;;7.10;67.24
75317;BME280;63913;51.492;10.368;2024-02-23T01:42:14;95813.84;;;7.03;66.82
75317;BME280;63913;51.492;10.368;2024-02-23T01:44:40;95817.22;;;7.07;66.93
75317;BME280;63913;51.492;10.368;2024-02-23T01:47:05;95819.81;;;7.02;66.61
75317;BME280;63913;51.492;10.368;2024-02-23T01:49:31;95819.81;;;7.02;66.65
75317;BME280;63913;51.492;10.368;2024-02-23T01:51:59;95833.44;;;7.03;67.46
75317;BME280;63913;51.492;10.368;2024-02-23T01:54:25;95841.13;;;6.98;66.98
75317;BME280;63913;51.492;10.368;2024-02-23T01:56:53;95841.13;;;7.01;68.00
75317;BME280;63913;51.492;10.368;2024-02-23T01:59:19;95845.38;;;6.98;67.83
75317;BME280;63913;51.492;10.368;2024-02-23T02:01:45;95860.75;;;6.93;68.39
75317;BME280;63913;51.492;10.368;2024-02-23T02:04:11;95863.34;;;6.88;67.95
75317;BME280;63913;51.492;10.368;2024-02-23T02:06:36;95871.00;;;6.84;68.71
75317;BME280;63913;51.492;10.368;2024-02-23T02:09:02;95866.75;;;6.81;68.24
75317;BME280;63913;51.492;10.368;2024-02-23T02:11:27;95868.50;;;6.81;68.80
75317;BME280;63913;51.492;10.368;2024-02-23T02:13:53;95877.88;;;6.76;69.25
75317;BME280;63913;51.492;10.368;2024-02-23T02:16:18;95893.19;;;6.79;69.51
75317;BME280;63913;51.492;10.368;2024-02-23T02:18:44;95889.78;;;6.75;68.46
75317;BME280;63913;51.492;10.368;2024-02-23T02:21:11;95917.88;;;6.78;68.39
75317;BME280;63913;51.492;10.368;2024-02-23T02:23:36;95911.94;;;6.69;64.32
75317;BME280;63913;51.492;10.368;2024-02-23T02:26:02;95898.34;;;6.67;63.65
75317;BME280;63913;51.492;10.368;2024-02-23T02:28:28;95912.84;;;6.65;64.03
75317;BME280;63913;51.492;10.368;2024-02-23T02:30:53;95922.19;;;6.58;64.61
75317;BME280;63913;51.492;10.368;2024-02-23T02:33:19;95917.94;;;6.57;63.39
75317;BME280;63913;51.492;10.368;2024-02-23T02:35:44;95925.63;;;6.54;63.35
75317;BME280;63913;51.492;10.368;2024-02-23T02:38:11;95935.00;;;6.55;63.38
75317;BME280;63913;51.492;10.368;2024-02-23T02:40:36;95941.84;;;6.47;63.81
75317;BME280;63913;51.492;10.368;2024-02-23T02:43:02;95928.22;;;6.42;63.63
75317;BME280;63913;51.492;10.368;2024-02-23T02:45:27;95956.31;;;6.40;63.76
75317;BME280;63913;51.492;10.368;2024-02-23T02:47:53;95948.66;;;6.34;63.28
75317;BME280;63913;51.492;10.368;2024-02-23T02:50:18;95946.97;;;6.27;64.12
75317;BME280;63913;51.492;10.368;2024-02-23T02:52:44;95949.53;;;6.26;63.70
75317;BME280;63913;51.492;10.368;2024-02-23T02:55:09;95963.16;;;6.23;64.21
75317;BME280;63913;51.492;10.368;2024-02-23T02:57:34;95959.75;;;6.20;65.01
75317;BME280;63913;51.492;10.368;2024-02-23T03:00:03;95986.13;;;6.20;64.80
75317;BME280;63913;51.492;10.368;2024-02-23T03:02:34;95981.03;;;6.16;64.71
75317;BME280;63913;51.492;10.368;2024-02-23T03:05:00;95970.81;;;6.22;65.20
75317;BME280;63913;51.492;10.368;2024-02-23T03:07:25;95979.31;;;6.08;65.74
75317;BME280;63913;51.492;10.368;2024-02-23T03:09:50;95986.13;;;6.09;64.86
75317;BME280;63913;51.492;10.368;2024-02-23T03:12:17;95992.06;;;6.11;64.65
75317;BME280;63913;51.492;10.368;2024-02-23T03:14:43;95995.47;;;6.13;65.05
75317;BME280;63913;51.492;10.368;2024-02-23T03:17:08;95998.03;;;6.13;64.86
75317;BME280;63913;51.492;10.368;2024-02-23T03:19:37;96007.38;;;6.13;64.92
75317;BME280;63913;51.492;10.368;2024-02-23T03:22:03;96013.34;;;6.10;65.26
75317;BME280;63913;51.492;10.368;2024-02-23T03:24:28;96010.78;;;6.09;65.03
75317;BME280;63913;51.492;10.368;2024-02-23T03:26:54;96002.28;;;6.02;66.42
75317;BME280;63913;51.492;10.368;2024-02-23T03:29:20;96021.84;;;5.99;66.22
75317;BME280;63913;51.492;10.368;2024-02-23T03:31:47;96030.34;;;6.02;66.18
75317;BME280;63913;51.492;10.368;2024-02-23T03:34:12;96032.88;;;6.02;66.48
75317;BME280;63913;51.492;10.368;2024-02-23T03:36:38;96037.16;;;6.05;66.96
75317;BME280;63913;51.492;10.368;2024-02-23T03:39:03;96032.91;;;5.92;66.66
75317;BME280;63913;51.492;10.368;2024-02-23T03:41:29;96055.84;;;5.90;66.43
75317;BME280;63913;51.492;10.368;2024-02-23T03:43:54;96057.53;;;5.88;66.58
75317;BME280;63913;51.492;10.368;2024-02-23T03:46:20;96062.59;;;5.85;66.59
75317;BME280;63913;51.492;10.368;2024-02-23T03:48:46;96066.84;;;5.74;67.38
75317;BME280;63913;51.492;10.368;2024-02-23T03:51:12;96069.38;;;5.71;67.39
75317;BME280;63913;51.492;10.368;2024-02-23T03:53:37;96112.72;;;5.72;67.95
75317;BME280;63913;51.492;10.368;2024-02-23T03:56:02;96087.22;;;5.66;67.90
75317;BME280;63913;51.492;10.368;2024-02-23T03:58:28;96107.59;;;5.68;67.69
75317;BME280;63913;51.492;10.368;2024-02-23T04:00:54;96101.66;;;5.63;67.47
75317;BME280;63913;51.492;10.368;2024-02-23T04:03:19;96100.78;;;5.61;68.06
75317;BME280;63913;51.492;10.368;2024-02-23T04:05:45;96099.09;;;5.57;68.37
75317;BME280;63913;51.492;10.368;2024-02-23T04:08:10;96097.38;;;5.50;67.88
75317;BME280;63913;51.492;10.368;2024-02-23T04:10:35;96094.84;;;5.50;68.67
75317;BME280;63913;51.492;10.368;2024-02-23T04:13:01;96094.78;;;5.44;68.59
75317;BME280;63913;51.492;10.368;2024-02-23T04:15:27;96098.19;;;5.33;69.21
75317;BME280;63913;51.492;10.368;2024-02-23T04:17:52;96089.66;;;5.28;68.33
75317;BME280;63913;51.492;10.368;2024-02-23T04:20:17;96098.13;;;5.24;68.43
75317;BME280;63913;51.492;10.368;2024-02-23T04:22:44;96093.00;;;5.20;68.88
75317;BME280;63913;51.492;10.368;2024-02-23T04:25:09;96105.75;;;5.18;69.27
75317;BME280;63913;51.492;10.368;2024-02-23T04:27:47;96097.25;;;5.21;68.54
75317;BME280;63913;51.492;10.368;2024-02-23T04:30:15;96109.97;;;5.19;69.02
75317;BME280;63913;51.492;10.368;2024-02-23T04:32:41;96108.28;;;5.15;69.45
75317;BME280;63913;51.492;10.368;2024-02-23T04:35:07;96111.66;;;5.13;69.68
75317;BME280;63913;51.492;10.368;2024-02-23T04:37:33;96109.09;;;5.07;69.58
75317;BME280;63913;51.492;10.368;2024-02-23T04:39:58;96118.41;;;5.03;69.20
75317;BME280;63913;51.492;10.368;2024-02-23T04:42:24;96117.56;;;5.03;69.63
75317;BME280;63913;51.492;10.368;2024-02-23T04:44:49;96132.81;;;4.99;69.01
75317;BME280;63913;51.492;10.368;2024-02-23T04:47:14;96146.41;;;5.05;68.86
75317;BME280;63913;51.492;10.368;2024-02-23T04:49:40;96143.03;;;5.04;68.14
75317;BME280;63913;51.492;10.368;2024-02-23T04:52:05;96154.91;;;5.05;67.70
75317;BME280;63913;51.492;10.368;2024-02-23T04:54:31;96154.97;;;5.10;67.79
75317;BME280;63913;51.492;10.368;2024-02-23T04:56:56;96166.84;;;5.14;68.72
75317;BME280;63913;51.492;10.368;2024-02-23T04:59:22;96163.44;;;5.09;68.44
75317;BME280;63913;51.492;10.368;2024-02-23T05:01:47;96176.13;;;5.06;68.92
75317;BME280;63913;51.492;10.368;2024-02-23T05:04:12;96177.00;;;5.06;68.60
75317;BME280;63913;51.492;10.368;2024-02-23T05:06:38;96184.63;;;5.06;69.08
75317;BME280;63913;51.492;10.368;2024-02-23T05:09:03;96189.75;;;5.08;69.22
75317;BME280;63913;51.492;10.368;2024-02-23T05:11:47;96190.59;;;5.13;69.33
75317;BME280;63913;51.492;10.368;2024-02-23T05:14:12;96187.25;;;5.18;69.50
75317;BME280;63913;51.492;10.368;2024-02-23T05:16:38;96180.47;;;5.17;69.19
75317;BME280;63913;51.492;10.368;2024-02-23T05:19:03;96195.72;;;5.14;70.00
75317;BME280;63913;51.492;10.368;2024-02-23T05:21:28;96182.16;;;5.17;70.19
75317;BME280;63913;51.492;10.368;2024-02-23T05:23:54;96205.88;;;5.10;69.30
75317;BME280;63913;51.492;10.368;2024-02-23T05:26:19;96212.63;;;5.05;69.34
75317;BME280;63913;51.492;10.368;2024-02-23T05:28:45;96205.03;;;5.09;69.94
75317;BME280;63913;51.492;10.368;2024-02-23T05:31:10;96210.09;;;5.06;69.72
75317;BME280;63913;51.492;10.368;2024-02-23T05:33:36;96227.06;;;5.01;70.34
75317;BME280;63913;51.492;10.368;2024-02-23T05:36:03;96211.75;;;4.98;69.88
75317;BME280;63913;51.492;10.368;2024-02-23T05:38:28;96223.63;;;4.99;69.38
75317;BME280;63913;51.492;10.368;2024-02-23T05:40:54;96214.25;;;4.93;68.72
75317;BME280;63913;51.492;10.368;2024-02-23T05:43:19;96209.97;;;4.88;70.18
75317;BME280;63913;51.492;10.368;2024-02-23T05:45:44;96220.97;;;4.87;69.96
75317;BME280;63913;51.492;10.368;2024-02-23T05:48:10;96219.22;;;4.77;69.67
75317;BME280;63913;51.492;10.368;2024-02-23T05:50:36;96224.34;;;4.81;69.62
75317;BME280;63913;51.492;10.368;2024-02-23T05:53:02;96215.06;;;4.85;69.24
75317;BME280;63913;51.492;10.368;2024-02-23T05:55:29;96221.78;;;4.78;70.08
75317;BME280;63913;51.492;10.368;2024-02-23T05:57:55;96220.91;;;4.75;70.70
75317;BME280;63913;51.492;10.368;2024-02-23T06:00:21;96228.50;;;4.72;70.53
75317;BME280;63913;51.492;10.368;2024-02-23T06:02:47;96229.34;;;4.71;70.82
75317;BME280;63913;51.492;10.368;2024-02-23T06:05:12;96231.91;;;4.69;71.02
75317;BME280;63913;51.492;10.368;2024-02-23T06:07:38;96238.69;;;4.69;70.92
75317;BME280;63913;51.492;10.368;2024-02-23T06:10:04;96227.59;;;4.62;71.20
75317;BME280;63913;51.492;10.368;2024-02-23T06:12:30;96235.16;;;4.56;71.86
75317;BME280;63913;51.492;10.368;2024-02-23T06:14:55;96242.84;;;4.59;71.15
75317;BME280;63913;51.492;10.368;2024-02-23T06:17:22;96245.41;;;4.64;70.55
75317;BME280;63913;51.492;10.368;2024-02-23T06:19:48;96262.34;;;4.58;71.54
75317;BME280;63913;51.492;10.368;2024-02-23T06:22:13;96252.03;;;4.46;71.08
75317;BME280;63913;51.492;10.368;2024-02-23T06:24:42;96259.69;;;4.48;71.38
75317;BME280;63913;51.492;10.368;2024-02-23T06:27:07;96250.41;;;4.54;71.60
75317;BME280;63913;51.492;10.368;2024-02-23T06:29:33;96253.66;;;4.40;71.93
75317;BME280;63913;51.492;10.368;2024-02-23T06:31:59;96252.91;;;4.45;71.28
75317;BME280;63913;51.492;10.368;2024-02-23T06:34:27;96249.53;;;4.51;70.80
75317;BME280;63913;51.492;10.368;2024-02-23T06:36:52;96266.50;;;4.50;71.02
75317;BME280;63913;51.492;10.368;2024-02-23T06:39:17;96269.06;;;4.52;70.46
75317;BME280;63913;51.492;10.368;2024-02-23T06:41:43;96265.59;;;4.47;70.32
75317;BME280;63913;51.492;10.368;2024-02-23T06:44:08;96260.56;;;4.50;71.13
75317;BME280;63913;51.492;10.368;2024-02-23T06:46:34;96265.72;;;4.57;70.78
75317;BME280;63913;51.492;10.368;2024-02-23T06:48:59;96275.91;;;4.59;69.91
75317;BME280;63913;51.492;10.368;2024-02-23T06:51:24;96278.47;;;4.59;69.27
75317;BME280;63913;51.492;10.368;2024-02-23T06:53:50;96267.38;;;4.55;69.24
75317;BME280;63913;51.492;10.368;2024-02-23T06:56:15;96272.50;;;4.57;69.28
75317;BME280;63913;51.492;10.368;2024-02-23T06:58:41;96303.78;;;4.45;69.18
75317;BME280;63913;51.492;10.368;2024-02-23T07:01:06;96292.75;;;4.48;68.41
75317;BME280;63913;51.492;10.368;2024-02-23T07:03:36;96287.66;;;4.48;68.66
75317;BME280;63913;51.492;10.368;2024-02-23T07:06:02;96292.00;;;4.56;68.29
75317;BME280;63913;51.492;10.368;2024-02-23T07:08:28;96294.59;;;4.64;68.45
75317;BME280;63913;51.492;10.368;2024-02-23T07:10:53;96307.41;;;4.70;69.06
75317;BME280;63913;51.492;10.368;2024-02-23T07:13:19;96312.50;;;4.70;68.98
75317;BME280;63913;51.492;10.368;2024-02-23T07:15:45;96312.50;;;4.70;69.85
75317;BME280;63913;51.492;10.368;2024-02-23T07:18:10;96311.63;;;4.68;69.64
75317;BME280;63913;51.492;10.368;2024-02-23T07:20:36;96326.91;;;4.68;70.54
75317;BME280;63913;51.492;10.368;2024-02-23T07:23:01;96332.84;;;4.69;69.97
75317;BME280;63913;51.492;10.368;2024-02-23T07:25:28;96352.34;;;4.68;71.04
75317;BME280;63913;51.492;10.368;2024-02-23T07:27:53;96352.28;;;4.64;71.64
75317;BME280;63913;51.492;10.368;2024-02-23T07:30:19;96362.53;;;4.71;71.56
75317;BME280;63913;51.492;10.368;2024-02-23T07:32:45;96367.72;;;4.77;72.24
75317;BME280;63913;51.492;10.368;2024-02-23T07:35:11;96361.72;;;4.74;72.66
75317;BME280;63913;51.492;10.368;2024-02-23T07:37:37;96363.44;;;4.75;72.83
75317;BME280;63913;51.492;10.368;2024-02-23T07:40:03;96372.03;;;4.84;73.13
75317;BME280;63913;51.492;10.368;2024-02-23T07:42:30;96369.41;;;4.80;70.95
75317;BME280;63913;51.492;10.368;2024-02-23T07:44:56;96387.34;;;4.89;71.00
75317;BME280;63913;51.492;10.368;2024-02-23T07:47:21;96382.25;;;4.90;71.63
75317;BME280;63913;51.492;10.368;2024-02-23T07:49:47;96386.56;;;4.97;71.30
75317;BME280;63913;51.492;10.368;2024-02-23T07:52:12;96378.94;;;4.94;70.52
75317;BME280;63913;51.492;10.368;2024-02-23T07:54:37;96372.91;;;4.88;71.74
75317;BME280;63913;51.492;10.368;2024-02-23T07:57:03;96372.91;;;4.86;71.20
75317;BME280;63913;51.492;10.368;2024-02-23T07:59:30;96398.41;;;4.91;70.99
75317;BME280;63913;51.492;10.368;2024-02-23T08:01:56;96405.06;;;4.78;69.28
75317;BME280;63913;51.492;10.368;2024-02-23T08:04:21;96402.56;;;4.84;69.99
75317;BME280;63913;51.492;10.368;2024-02-23T08:06:47;96407.69;;;4.87;70.47
75317;BME280;63913;51.492;10.368;2024-02-23T08:09:13;96401.78;;;4.90;69.82
75317;BME280;63913;51.492;10.368;2024-02-23T08:11:39;96396.03;;;5.09;69.28
75317;BME280;63913;51.492;10.368;2024-02-23T08:14:04;96408.78;;;5.11;68.94
75317;BME280;63913;51.492;10.368;2024-02-23T08:16:29;96422.28;;;5.01;67.80
75317;BME280;63913;51.492;10.368;2024-02-23T08:18:55;96408.69;;;5.00;68.79
75317;BME280;63913;51.492;10.368;2024-02-23T08:21:20;96410.38;;;5.01;68.51
75317;BME280;63913;51.492;10.368;2024-02-23T08:23:46;96424.00;;;5.06;68.08
75317;BME280;63913;51.492;10.368;2024-02-23T08:26:11;96407.09;;;5.10;68.51
75317;BME280;63913;51.492;10.368;2024-02-23T08:28:37;96427.47;;;5.14;68.15
75317;BME280;63913;51.492;10.368;2024-02-23T08:31:02;96426.53;;;5.05;68.48
75317;BME280;63913;51.492;10.368;2024-02-23T08:33:28;96434.25;;;5.11;67.60
75317;BME280;63913;51.492;10.368;2024-02-23T08:35:54;96436.69;;;5.00;68.35
75317;BME280;63913;51.492;10.368;2024-02-23T08:38:19;96420.59;;;5.06;67.39
75317;BME280;63913;51.492;10.368;2024-02-23T08:40:44;96428.28;;;5.07;68.76
75317;BME280;63913;51.492;10.368;2024-02-23T08:43:10;96419.00;;;5.14;68.75
75317;BME280;63913;51.492;10.368;2024-02-23T08:45:36;96428.28;;;5.07;68.04
75317;BME280;63913;51.492;10.368;2024-02-23T08:48:01;96435.94;;;5.12;68.66
75317;BME280;63913;51.492;10.368;2024-02-23T08:50:28;96422.34;;;5.08;68.08
75317;BME280;63913;51.492;10.368;2024-02-23T08:52:53;96433.41;;;5.12;67.75
75317;BME280;63913;51.492;10.368;2024-02-23T08:55:18;96425.81;;;5.16;68.55
75317;BME280;63913;51.492;10.368;2024-02-23T08:57:44;96430.16;;;5.25;68.37
75317;BME280;63913;51.492;10.368;2024-02-23T09:00:10;96435.22;;;5.23;67.83
75317;BME280;63913;51.492;10.368;2024-02-23T09:02:35;96436.13;;;5.30;67.00
75317;BME280;63913;51.492;10.368;2024-02-23T09:05:03;96428.47;;;5.30;67.52
75317;BME280;63913;51.492;10.368;2024-02-23T09:07:29;96425.06;;;5.25;66.74
75317;BME280;63913;51.492;10.368;2024-02-23T09:09:54;96428.44;;;5.25;67.18
75317;BME280;63913;51.492;10.368;2024-02-23T09:12:20;96430.22;;;5.35;67.15
75317;BME280;63913;51.492;10.368;2024-02-23T09:14:45;96419.22;;;5.38;66.39
75317;BME280;63913;51.492;10.368;2024-02-23T09:17:11;96403.13;;;5.42;66.51
75317;BME280;63913;51.492;10.368;2024-02-23T09:19:37;96400.59;;;5.47;67.61
75317;BME280;63913;51.492;10.368;2024-02-23T09:22:03;96420.22;;;5.55;66.28
75317;BME280;63913;51.492;10.368;2024-02-23T09:24:28;96415.22;;;5.67;66.21
75317;BME280;63913;51.492;10.368;2024-02-23T09:26:54;96407.59;;;5.73;65.67
75317;BME280;63913;51.492;10.368;2024-02-23T09:29:20;96415.22;;;5.67;65.55
75317;BME280;63913;51.492;10.368;2024-02-23T09:31:46;96406.59;;;5.55;65.36
75317;BME280;63913;51.492;10.368;2024-02-23T09:34:12;96420.19;;;5.54;65.94
75317;BME280;63913;51.492;10.368;2024-02-23T09:36:37;96411.78;;;5.64;65.53
75317;BME280;63913;51.492;10.368;2024-02-23T09:39:02;96405.91;;;5.72;65.66
75317;BME280;63913;51.492;10.368;2024-02-23T09:41:30;96407.56;;;5.70;65.94
75317;BME280;63913;51.492;10.368;2024-02-23T09:43:58;96399.97;;;5.73;65.26
75317;BME280;63913;51.492;10.368;2024-02-23T09:46:25;96404.28;;;5.85;65.46
75317;BME280;63913;51.492;10.368;2024-02-23T09:48:51;96400.88;;;5.86;64.22
75317;BME280;63913;51.492;10.368;2024-02-23T09:51:16;96383.03;;;5.86;64.11
75317;BME280;63913;51.492;10.368;2024-02-23T09:53:43;96386.53;;;5.97;64.23
75317;BME280;63913;51.492;10.368;2024-02-23T09:56:08;96387.41;;;6.02;63.72
75317;BME280;63913;51.492;10.368;2024-02-23T09:58:36;96385.75;;;6.06;63.95
75317;BME280;63913;51.492;10.368;2024-02-23T10:01:02;96399.41;;;6.14;62.77
75317;BME280;63913;51.492;10.368;2024-02-23T10:03:29;96390.91;;;6.15;61.66
75317;BME280;63913;51.492;10.368;2024-02-23T10:05:59;96384.09;;;6.19;60.97
75317;BME280;63913;51.492;10.368;2024-02-23T10:08:29;96400.31;;;6.27;62.06
75317;BME280;63913;51.492;10.368;2024-02-23T10:10:55;96390.94;;;6.27;60.07
75317;BME280;63913;51.492;10.368;2024-02-23T10:13:22;96414.78;;;6.31;60.03
75317;BME280;63913;51.492;10.368;2024-02-23T10:15:48;96418.19;;;6.34;59.58
75317;BME280;63913;51.492;10.368;2024-02-23T10:18:13;96428.28;;;6.10;60.50
75317;BME280;63913;51.492;10.368;2024-02-23T10:20:40;96414.66;;;6.09;60.48
75317;BME280;63913;51.492;10.368;2024-02-23T10:23:07;96400.13;;;5.96;61.09
75317;BME280;63913;51.492;10.368;2024-02-23T10:25:36;96400.19;;;6.05;62.09
75317;BME280;63913;51.492;10.368;2024-02-23T10:28:06;96407.03;;;6.08;62.05
75317;BME280;63913;51.492;10.368;2024-02-23T10:30:32;96430.88;;;6.18;61.89
75317;BME280;63913;51.492;10.368;2024-02-23T10:32:58;96421.50;;;6.17;60.42
75317;BME280;63913;51.492;10.368;2024-02-23T10:35:25;96429.19;;;6.21;60.54
75317;BME280;63913;51.492;10.368;2024-02-23T10:37:52;96432.50;;;6.09;61.20
75317;BME280;63913;51.492;10.368;2024-02-23T10:40:19;96424.88;;;6.09;61.90
75317;BME280;63913;51.492;10.368;2024-02-23T10:42:47;96433.47;;;6.24;62.45
75317;BME280;63913;51.492;10.368;2024-02-23T10:45:21;96440.41;;;6.47;62.34
75317;BME280;63913;51.492;10.368;2024-02-23T10:47:51;96443.81;;;6.54;61.90
75317;BME280;63913;51.492;10.368;2024-02-23T10:50:17;96447.22;;;6.51;61.13
75317;BME280;63913;51.492;10.368;2024-02-23T10:52:44;96438.69;;;6.49;60.68
75317;BME280;63913;51.492;10.368;2024-02-23T10:55:10;96439.50;;;6.41;61.11
75317;BME280;63913;51.492;10.368;2024-02-23T10:57:36;96443.75;;;6.37;61.72
75317;BME280;63913;51.492;10.368;2024-02-23T11:00:03;96442.81;;;6.25;61.08
75317;BME280;63913;51.492;10.368;2024-02-23T11:02:50;96443.72;;;6.30;61.33
75317;BME280;63913;51.492;10.368;2024-02-23T11:05:18;96440.28;;;6.23;61.73
75317;BME280;63913;51.492;10.368;2024-02-23T11:07:46;96445.38;;;6.28;62.10
75317;BME280;63913;51.492;10.368;2024-02-23T11:10:15;96443.69;;;6.27;62.28
75317;BME280;63913;51.492;10.368;2024-02-23T11:12:41;96450.47;;;6.25;62.88
75317;BME280;63913;51.492;10.368;2024-02-23T11:15:06;96455.50;;;6.11;62.19
75317;BME280;63913;51.492;10.368;2024-02-23T11:17:33;96464.00;;;6.11;63.36
75317;BME280;63913;51.492;10.368;2024-02-23T11:20:02;96452.94;;;6.11;63.50
75317;BME280;63913;51.492;10.368;2024-02-23T11:22:35;96469.97;;;6.13;63.38
75317;BME280;63913;51.492;10.368;2024-02-23T11:25:03;96450.38;;;6.09;62.58
75317;BME280;63913;51.492;10.368;2024-02-23T11:27:31;96458.88;;;6.08;62.27
75317;BME280;63913;51.492;10.368;2024-02-23T11:30:05;96457.19;;;6.10;63.15
75317;BME280;63913;51.492;10.368;2024-02-23T11:32:45;96463.16;;;6.17;62.88
75317;BME280;63913;51.492;10.368;2024-02-23T11:35:13;96468.34;;;6.23;62.76
75317;BME280;63913;51.492;10.368;2024-02-23T11:40:12;96457.25;;;6.20;60.84
75317;BME280;63913;51.492;10.368;2024-02-23T11:42:42;96459.81;;;6.21;60.37
75317;BME280;63913;51.492;10.368;2024-02-23T11:45:09;96461.53;;;6.24;61.33
75317;BME280;63913;51.492;10.368;2024-02-23T11:47:36;96444.53;;;6.26;60.45
75317;BME280;63913;51.492;10.368;2024-02-23T11:50:03;96456.47;;;6.31;60.19
75317;BME280;63913;51.492;10.368;2024-02-23T11:52:29;96462.38;;;6.26;59.91
75317;BME280;63913;51.492;10.368;2024-02-23T11:54:55;96454.75;;;6.27;59.69
75317;BME280;63913;51.492;10.368;2024-02-23T11:57:21;96464.13;;;6.31;59.39
75317;BME280;63913;51.492;10.368;2024-02-23T11:59:47;96467.53;;;6.32;60.05
75317;BME280;63913;51.492;10.368;2024-02-23T12:02:13;96461.59;;;6.37;59.89
75317;BME280;63913;51.492;10.368;2024-02-23T12:04:38;96472.69;;;6.44;59.77
75317;BME280;63913;51.492;10.368;2024-02-23T12:07:06;96471.00;;;6.43;59.32
75317;BME280;63913;51.492;10.368;2024-02-23T12:09:31;96460.75;;;6.37;60.28
75317;BME280;63913;51.492;10.368;2024-02-23T12:11:57;96459.06;;;6.39;60.55
75317;BME280;63913;51.492;10.368;2024-02-23T12:14:22;96453.91;;;6.33;61.26
75317;BME280;63913;51.492;10.368;2024-02-23T12:16:48;96455.59;;;6.23;62.37
75317;BME280;63913;51.492;10.368;2024-02-23T12:19:15;96455.56;;;6.25;63.27
75317;BME280;63913;51.492;10.368;2024-02-23T12:21:45;96438.56;;;6.25;63.00
75317;BME280;63913;51.492;10.368;2024-02-23T12:24:12;96440.31;;;6.31;63.04
75317;BME280;63913;51.492;10.368;2024-02-23T12:26:37;96436.03;;;6.33;62.09
75317;BME280;63913;51.492;10.368;2024-02-23T12:29:03;96434.38;;;6.36;61.25
75317;BME280;63913;51.492;10.368;2024-02-23T12:31:31;96446.34;;;6.48;61.80
75317;BME280;63913;51.492;10.368;2024-02-23T12:33:57;96429.28;;;6.42;60.57
75317;BME280;63913;51.492;10.368;2024-02-23T12:36:24;96439.56;;;6.53;60.67
75317;BME280;63913;51.492;10.368;2024-02-23T12:38:50;96434.47;;;6.48;58.93
75317;BME280;63913;51.492;10.368;2024-02-23T12:41:15;96443.81;;;6.53;59.10
75317;BME280;63913;51.492;10.368;2024-02-23T12:43:40;96444.66;;;6.48;58.74
75317;BME280;63913;51.492;10.368;2024-02-23T12:46:06;96441.28;;;6.56;58.17
75317;BME280;63913;51.492;10.368;2024-02-23T12:48:34;96440.44;;;6.58;58.25
75317;BME280;63913;51.492;10.368;2024-02-23T12:51:01;96441.28;;;6.57;59.43
75317;BME280;63913;51.492;10.368;2024-02-23T12:56:00;96438.00;;;6.81;58.01
75317;BME280;63913;51.492;10.368;2024-02-23T12:58:26;96442.22;;;6.76;58.44